Time;durP1;ratioP1;P1;durP2;ratioP2;P2;SDS_P1;SDS_P2;PMS_P1;PMS_P2;Temp;Humidity;BMP_temperature;BMP_pressure;BME280_temperature;BME280_humidity;BME280_pressure;Samples;Min_cycle;Max_cycle;Signal;HPM_P1;HPM_P2
2023/01/27 00:01:52;;;;;;;11.32;1.17;;;4.30;99.90;;;2.63;100.00;101881.91;4917752;23;21015;-83
2023/01/27 00:04:44;;;;;;;12.52;1.65;;;4.40;99.90;;;2.65;100.00;101882.78;4903600;28;20043;-85
2023/01/27 00:07:10;;;;;;;12.85;1.10;;;;;;;2.60;100.00;101879.31;4911423;28;20035;-84
2023/01/27 00:09:36;;;;;;;15.27;1.58;;;5.90;99.90;;;2.67;100.00;101880.19;4899866;28;20305;-84
2023/01/27 00:15:44;;;;;;;15.25;1.77;;;3.00;99.90;;;2.58;100.00;101881.03;4839796;29;20039;-85
2023/01/27 00:18:25;;;;;;;6.22;1.02;;;;;;;2.58;100.00;101877.56;4893393;29;20048;-86
2023/01/27 00:26:41;;;;;;;5.85;0.88;;;4.30;99.90;;;2.59;100.00;101884.50;4917363;28;20069;-83
2023/01/27 00:29:14;;;;;;;9.68;1.65;;;4.30;99.90;;;2.63;100.00;101886.25;4923182;28;21651;-86
2023/01/27 00:34:54;;;;;;;15.07;2.10;;;4.30;99.90;;;2.63;100.00;101894.03;4932384;28;20045;-87
2023/01/27 00:37:53;;;;;;;18.95;1.70;;;;;;;2.54;100.00;101896.59;4890551;29;20079;-86
2023/01/27 00:44:03;;;;;;;12.15;1.38;;;4.30;99.90;;;2.51;100.00;101901.81;4886113;28;20118;-86
2023/01/27 00:46:55;;;;;;;3.63;0.82;;;;;;;2.52;100.00;101908.72;4921880;28;20090;-86
2023/01/27 00:49:33;;;;;;;16.05;1.85;;;;;;;2.53;100.00;101921.75;4914847;28;20135;-86
2023/01/27 00:54:37;;;;;;;11.68;1.58;;;4.30;99.90;;;2.63;100.00;101920.91;4982119;22;20045;-87
2023/01/27 01:00:35;;;;;;;15.20;1.40;;;;;;;2.57;100.00;101928.69;4942804;28;20068;-86
2023/01/27 01:03:45;;;;;;;9.98;1.83;;;4.20;99.90;;;2.56;100.00;101923.50;4896157;29;20060;-84
2023/01/27 01:07:25;;;;;;;12.85;1.50;;;;;;;2.52;100.00;101930.38;4821758;29;20047;-87
2023/01/27 01:09:55;;;;;;;5.32;0.90;;;4.20;99.90;;;2.49;100.00;101932.97;4745176;29;20124;-85
2023/01/27 01:12:44;;;;;;;11.30;1.00;;;4.20;99.90;;;2.47;100.00;101930.38;4705394;29;20136;-86
2023/01/27 01:16:18;;;;;;;49.05;26.33;;;4.20;99.90;;;2.44;100.00;101925.16;4697987;30;20422;-87
2023/01/27 01:18:57;;;;;;;26.35;23.45;;;;;;;2.44;100.00;101921.66;4797310;29;20045;-86
2023/01/27 01:21:38;;;;;;;3.10;0.80;;;4.20;99.90;;;2.48;100.00;101939.03;4919874;23;20063;-84
2023/01/27 01:24:49;;;;;;;10.85;0.98;;;4.20;99.90;;;2.47;100.00;101932.09;4969317;28;20161;-86
2023/01/27 01:27:14;;;;;;;7.53;0.77;;;4.20;99.90;;;2.44;100.00;101939.88;4849513;29;20069;-86
2023/01/27 01:30:06;;;;;;;6.25;0.80;;;4.20;99.90;;;2.46;100.00;101945.94;4902182;29;20037;-86
2023/01/27 01:32:35;;;;;;;6.10;0.80;;;;;;;2.45;100.00;101939.88;4892175;28;20043;-86
2023/01/27 01:36:16;;;;;;;3.47;0.90;;;4.20;99.90;;;2.44;100.00;101942.47;4907789;29;20163;-86
2023/01/27 01:38:55;;;;;;;8.27;0.85;;;;;;;2.44;100.00;101948.56;4808468;29;20069;-86
2023/01/27 01:41:22;;;;;;;3.40;0.60;;;;;;;2.40;100.00;101945.94;4943125;23;20123;-87
2023/01/27 01:47:56;;;;;;;;;;;;;;;;;;;;;
2023/01/27 01:50:26;;;;;;;13.85;1.33;;;;;;;2.42;100.00;101950.28;4951427;28;20519;-86
2023/01/27 01:53:17;;;;;;;9.55;1.00;;;;;;;2.43;100.00;101949.41;4933219;28;20043;-87
2023/01/27 01:55:45;;;;;;;5.65;0.93;;;;;;;2.37;100.00;101946.75;4980264;28;20037;-86
2023/01/27 01:58:56;;;;;;;11.05;1.27;;;4.10;99.90;;;2.38;100.00;101955.44;4911325;28;20034;-87
2023/01/27 02:01:35;;;;;;;11.68;1.05;;;;;;;2.38;100.00;101958.06;4971335;28;20050;-86
2023/01/27 02:08:16;;;;;;;12.80;1.35;;;4.10;99.90;;;2.35;100.00;101961.47;5035851;28;20033;-86
2023/01/27 02:10:55;;;;;;;14.05;1.48;;;4.00;99.90;;;2.31;100.00;101974.44;4971624;28;20039;-86
2023/01/27 02:14:25;;;;;;;12.32;1.33;;;4.00;99.90;;;2.33;100.00;101964.91;4905620;28;20048;-86
2023/01/27 02:16:51;;;;;;;9.20;1.30;;;;;;;2.33;100.00;101959.72;4925733;28;20107;-88
2023/01/27 02:23:03;;;;;;;;;;;;;;;;;;;;;
2023/01/27 02:25:35;;;;;;;15.27;2.00;;;4.10;99.90;;;2.43;100.00;101977.13;4928999;28;21589;-88
2023/01/27 02:28:34;;;;;;;11.15;1.30;;;;;;;2.46;100.00;101980.63;5005005;28;20107;-87
2023/01/27 02:31:12;;;;;;;18.98;1.73;;;4.10;99.90;;;2.40;100.00;101971.94;5005131;28;20041;-87
2023/01/27 02:37:20;;;;;;;16.25;1.58;;;4.10;99.90;;;2.42;100.00;101971.06;5011769;23;20563;-78
2023/01/27 02:39:49;;;;;;;12.05;1.15;;;4.10;99.90;;;2.39;100.00;101985.78;4965040;28;20521;-77
2023/01/27 02:42:19;;;;;;;14.57;1.42;;;4.10;99.90;;;2.44;100.00;101977.16;4957725;28;20038;-78
2023/01/27 02:44:45;;;;;;;17.27;1.50;;;4.10;99.90;;;2.40;100.00;101990.13;4970674;28;20034;-78
2023/01/27 02:47:10;;;;;;;16.50;2.33;;;4.10;99.90;;;2.37;100.00;101990.09;4963610;28;20033;-77
2023/01/27 02:49:36;;;;;;;9.20;1.20;;;4.10;99.90;;;2.37;100.00;101990.94;4936369;28;20055;-78
2023/01/27 02:52:02;;;;;;;11.52;1.25;;;4.10;99.90;;;2.37;100.00;102005.69;4950694;28;20827;-77
2023/01/27 02:54:32;;;;;;;16.52;1.63;;;4.10;99.90;;;2.44;100.00;102005.75;4946238;28;20038;-77
2023/01/27 02:56:58;;;;;;;11.73;1.55;;;4.10;99.90;;;2.44;100.00;101995.34;4942727;28;20034;-78
2023/01/27 02:59:24;;;;;;;9.00;0.80;;;4.10;99.90;;;2.41;100.00;102000.50;4941664;28;20034;-77
2023/01/27 03:01:49;;;;;;;13.75;1.33;;;4.20;99.90;;;2.49;100.00;102010.97;4931568;28;20038;-77
2023/01/27 03:04:15;;;;;;;12.30;1.10;;;4.20;99.90;;;2.49;100.00;102010.13;4944743;28;20133;-78
2023/01/27 03:06:41;;;;;;;14.02;1.65;;;4.20;99.90;;;2.45;100.00;102011.81;4933946;28;20398;-78
2023/01/27 03:09:07;;;;;;;9.15;1.27;;;4.10;99.90;;;2.47;100.00;102010.09;4949167;28;20050;-77
2023/01/27 03:14:20;;;;;;;10.63;1.58;;;4.10;99.90;;;2.44;100.00;102017.84;4947723;28;20463;-76
2023/01/27 03:19:30;;;;;;;19.58;1.75;;;4.10;99.90;;;2.44;100.00;102015.25;4926491;28;20045;-78
2023/01/27 03:21:56;;;;;;;10.40;0.98;;;4.20;99.90;;;2.48;100.00;102014.44;4897863;28;20673;-77
2023/01/27 03:24:22;;;;;;;6.70;1.48;;;4.10;99.90;;;2.42;100.00;102024.81;4948936;28;20077;-78
2023/01/27 03:26:50;;;;;;;6.72;0.98;;;4.10;99.90;;;2.41;100.00;102025.66;4922666;28;20126;-77
2023/01/27 03:32:00;;;;;;;10.88;1.08;;;4.10;99.90;;;2.42;100.00;102032.59;4962057;28;20066;-77
2023/01/27 03:34:26;;;;;;;9.70;0.77;;;4.10;99.90;;;2.34;100.00;102019.53;4937721;28;20046;-78
2023/01/27 03:47:51;;;;;;;14.57;1.33;;;4.20;99.90;;;2.47;100.00;102036.09;4950862;28;20569;-78
2023/01/27 03:50:18;;;;;;;12.93;1.38;;;4.20;99.90;;;2.49;100.00;102034.38;4948086;28;20090;-78
2023/01/27 03:53:01;;;;;;;14.95;1.38;;;4.10;99.90;;;2.45;100.00;102032.63;4938598;28;20027;-76
2023/01/27 03:55:32;;;;;;;7.40;1.13;;;4.20;99.90;;;2.45;100.00;102037.81;4952439;28;20530;-77
2023/01/27 03:58:28;;;;;;;14.82;1.55;;;4.10;99.90;;;2.53;100.00;102040.47;4944715;28;20484;-77
2023/01/27 04:01:00;;;;;;;10.57;1.58;;;4.10;99.90;;;2.44;100.00;102033.44;4939264;28;20035;-77
2023/01/27 04:09:05;;;;;;;19.20;1.60;;;4.10;99.90;;;2.40;100.00;102031.72;4933390;28;20471;-77
2023/01/27 04:14:16;;;;;;;13.15;1.25;;;4.10;99.90;;;2.38;100.00;102043.84;4960997;28;20041;-78
2023/01/27 04:16:42;;;;;;;11.18;1.23;;;4.10;99.90;;;2.38;100.00;102046.44;4912751;28;20432;-78
2023/01/27 04:19:10;;;;;;;18.00;1.33;;;4.10;99.90;;;2.33;100.00;102046.38;4955558;28;20131;-78
2023/01/27 04:21:39;;;;;;;11.38;0.95;;;4.10;99.90;;;2.36;100.00;102045.53;4933946;28;20078;-78
2023/01/27 04:24:16;;;;;;;11.65;1.30;;;4.10;99.90;;;2.40;100.00;102044.72;4925751;28;20171;-77
2023/01/27 04:26:45;;;;;;;15.82;1.38;;;4.10;99.90;;;2.40;100.00;102055.97;4939441;28;20037;-77
2023/01/27 04:29:13;;;;;;;9.00;1.10;;;4.10;99.90;;;2.39;100.00;102055.97;4934938;28;20030;-77
2023/01/27 04:31:41;;;;;;;3.67;0.68;;;4.10;99.90;;;2.33;100.00;102059.34;4908417;28;20102;-76
2023/01/27 04:34:09;;;;;;;15.02;1.63;;;4.00;99.90;;;2.34;100.00;102070.66;4908693;28;20042;-77
2023/01/27 04:36:35;;;;;;;11.15;0.95;;;4.00;99.90;;;2.34;100.00;102071.53;4948536;28;20479;-77
2023/01/27 04:39:04;;;;;;;15.40;1.30;;;4.00;99.90;;;2.39;100.00;102071.56;4932181;28;20041;-77
2023/01/27 04:41:29;;;;;;;10.80;1.10;;;4.00;99.90;;;2.33;100.00;102074.09;4929598;28;20122;-77
2023/01/27 04:43:55;;;;;;;10.40;1.23;;;4.00;99.90;;;2.37;100.00;102089.72;4896349;28;20041;-77
2023/01/27 04:46:21;;;;;;;13.32;1.17;;;4.00;99.90;;;2.33;100.00;102087.97;4945265;28;20040;-79
2023/01/27 04:48:47;;;;;;;14.60;1.63;;;4.10;99.90;;;2.38;100.00;102073.28;4960243;28;20149;-77
2023/01/27 04:51:13;;;;;;;15.23;1.48;;;4.00;99.90;;;2.32;100.00;102080.16;4944130;28;20089;-77
2023/01/27 04:53:39;;;;;;;14.43;1.58;;;4.00;99.90;;;2.37;100.00;102084.53;4909353;28;20094;-77
2023/01/27 04:56:19;;;;;;;9.38;1.38;;;4.10;99.90;;;2.38;100.00;102088.03;4952142;28;20042;-77
2023/01/27 04:58:54;;;;;;;16.38;1.45;;;4.10;99.90;;;2.39;100.00;102081.94;4954496;28;20035;-77
2023/01/27 05:01:21;;;;;;;4.50;0.77;;;4.10;99.90;;;2.35;100.00;102080.19;4958077;28;20468;-77
2023/01/27 05:03:47;;;;;;;8.35;1.08;;;4.00;99.90;;;2.36;100.00;102084.53;4944769;28;20559;-76
2023/01/27 05:06:18;;;;;;;4.97;0.77;;;4.00;99.90;;;2.30;100.00;102092.28;4911460;28;20122;-77
2023/01/27 05:08:44;;;;;;;6.05;0.70;;;4.00;99.90;;;2.21;100.00;102083.53;4911578;28;20039;-77
2023/01/27 05:11:11;;;;;;;10.70;1.27;;;4.00;99.90;;;2.21;100.00;102083.53;4913141;28;20426;-77
2023/01/27 05:13:39;;;;;;;12.38;1.20;;;4.00;99.90;;;2.32;100.00;102093.16;4923265;28;20109;-77
2023/01/27 05:16:11;;;;;;;10.70;1.25;;;4.00;99.90;;;2.24;100.00;102090.47;4935252;28;20102;-77
2023/01/27 05:18:39;;;;;;;7.53;1.02;;;4.00;99.90;;;2.26;100.00;102089.63;4961483;28;20038;-77
2023/01/27 05:21:06;;;;;;;7.85;0.95;;;4.00;99.90;;;2.30;100.00;102100.94;4918360;28;20041;-77
2023/01/27 05:23:37;;;;;;;11.73;1.30;;;4.00;99.90;;;2.33;100.00;102097.50;4926776;28;20034;-77
2023/01/27 05:26:30;;;;;;;10.38;1.17;;;4.00;99.90;;;2.20;100.00;102102.59;4932063;28;20047;-78
2023/01/27 05:28:57;;;;;;;7.53;1.00;;;3.90;99.90;;;2.22;100.00;102100.84;4948195;28;20049;-77
2023/01/27 05:31:27;;;;;;;8.30;0.80;;;3.90;99.90;;;2.12;100.00;102101.63;4918840;28;20100;-76
2023/01/27 05:33:55;;;;;;;7.38;0.98;;;3.90;99.90;;;2.14;100.00;102102.53;4896667;28;20030;-78
2023/01/27 05:36:25;;;;;;;7.97;0.85;;;3.90;99.90;;;2.11;100.00;102101.59;4956849;28;20558;-77
2023/01/27 05:38:52;;;;;;;4.78;0.63;;;3.90;99.90;;;2.13;100.00;102103.34;4942731;28;20090;-77
2023/01/27 05:41:19;;;;;;;5.47;1.00;;;3.80;99.90;;;2.09;100.00;102109.38;4909511;28;20039;-76
2023/01/27 05:43:53;;;;;;;8.45;0.88;;;3.80;99.90;;;2.13;100.00;102118.09;4919775;28;20041;-78
2023/01/27 05:46:22;;;;;;;5.88;0.85;;;3.80;99.90;;;2.11;100.00;102125.84;4926089;28;20039;-78
2023/01/27 05:48:51;;;;;;;8.25;0.80;;;3.80;99.90;;;2.14;100.00;102135.41;4918250;28;20035;-77
2023/01/27 05:51:19;;;;;;;11.65;1.30;;;3.80;99.90;;;2.16;100.00;102129.41;4951101;28;20038;-77
2023/01/27 05:53:45;;;;;;;9.38;1.23;;;3.80;99.90;;;2.15;100.00;102140.63;4874146;28;20041;-78
2023/01/27 05:56:16;;;;;;;8.95;1.10;;;3.90;99.90;;;2.12;100.00;102151.00;4908136;28;20045;-77
2023/01/27 05:58:43;;;;;;;5.03;0.70;;;3.80;99.90;;;2.03;100.00;102151.78;4931608;28;20046;-77
2023/01/27 06:01:13;;;;;;;9.98;1.05;;;3.80;99.90;;;2.10;100.00;102152.72;4946509;28;20038;-77
2023/01/27 06:03:39;;;;;;;9.73;0.90;;;3.80;99.90;;;2.09;100.00;102150.94;4930805;28;20125;-77
2023/01/27 06:06:07;;;;;;;6.43;0.98;;;3.80;99.90;;;2.14;100.00;102156.19;4920162;28;20093;-76
2023/01/27 06:08:33;;;;;;;3.53;0.93;;;3.80;99.90;;;2.11;100.00;102162.25;4943292;28;20093;-76
2023/01/27 06:10:59;;;;;;;5.00;0.68;;;3.80;99.90;;;2.04;100.00;102160.44;4921950;28;20420;-77
2023/01/27 06:13:30;;;;;;;7.43;0.93;;;3.70;99.90;;;2.05;100.00;102170.84;4924108;28;20031;-77
2023/01/27 06:15:56;;;;;;;7.75;1.30;;;3.80;99.90;;;2.08;100.00;102172.59;4928345;28;20053;-77
2023/01/27 06:18:23;;;;;;;12.60;1.00;;;3.70;99.90;;;2.01;100.00;102171.66;4907820;28;20133;-77
2023/01/27 06:20:49;;;;;;;8.63;1.00;;;3.80;99.90;;;2.02;100.00;102177.72;4935962;28;20038;-77
2023/01/27 06:23:19;;;;;;;8.73;2.35;;;3.70;99.90;;;1.95;100.00;102181.13;4919200;28;20035;-77
2023/01/27 06:25:48;;;;;;;9.95;0.82;;;3.70;99.90;;;1.96;100.00;102164.66;4917422;28;20085;-78
2023/01/27 06:28:15;;;;;;;5.25;0.68;;;3.60;99.90;;;1.87;100.00;102169.75;4956967;28;20077;-76
2023/01/27 06:30:43;;;;;;;9.65;1.00;;;3.70;99.90;;;1.96;100.00;102186.31;4930239;28;20522;-78
2023/01/27 06:33:16;;;;;;;8.18;0.68;;;3.60;99.90;;;1.91;100.00;102175.00;4913156;28;20089;-78
2023/01/27 06:35:42;;;;;;;4.72;0.50;;;3.60;99.90;;;1.87;100.00;102174.94;4939627;28;20495;-77
2023/01/27 06:38:14;;;;;;;2.88;0.65;;;3.60;99.90;;;1.92;100.00;102183.66;4924412;28;20045;-77
2023/01/27 06:40:41;;;;;;;4.97;0.85;;;3.60;99.90;;;1.92;100.00;102191.44;4913738;28;20062;-78
2023/01/27 06:43:12;;;;;;;3.85;0.98;;;3.60;99.90;;;1.82;99.47;102200.88;4929507;28;20038;-77
2023/01/27 06:45:38;;;;;;;5.30;0.70;;;3.60;99.90;;;1.82;98.72;102199.13;4949329;28;20489;-77
2023/01/27 06:48:07;;;;;;;5.38;1.58;;;3.60;99.90;;;1.85;98.80;102198.28;4924321;28;20058;-78
2023/01/27 06:50:33;;;;;;;10.20;0.75;;;3.60;99.90;;;1.81;98.25;102199.09;4912569;28;20423;-77
2023/01/27 06:53:02;;;;;;;14.65;2.25;;;3.60;99.90;;;1.88;98.66;102207.84;4963832;28;20033;-78
2023/01/27 06:55:28;;;;;;;6.38;0.90;;;3.60;99.90;;;1.88;97.95;102210.44;4931157;28;20031;-76
2023/01/27 06:57:54;;;;;;;6.10;0.88;;;3.60;99.90;;;1.88;97.86;102216.53;4955642;28;20038;-77
2023/01/27 07:00:20;;;;;;;6.70;1.10;;;3.60;99.90;;;1.88;97.92;102215.63;4927742;28;20114;-78
2023/01/27 07:02:53;;;;;;;7.93;0.90;;;3.60;99.90;;;1.85;97.67;102206.94;4929302;28;20415;-78
2023/01/27 07:05:19;;;;;;;4.10;0.32;;;3.60;99.90;;;1.87;97.49;102224.31;4926683;28;20473;-77
2023/01/27 07:07:45;;;;;;;10.10;0.77;;;3.60;99.90;;;1.85;96.81;102232.94;4925349;28;20039;-76
2023/01/27 07:10:11;;;;;;;5.63;0.60;;;3.50;99.90;;;1.80;95.88;102223.34;4946612;28;20039;-77
2023/01/27 07:12:39;;;;;;;3.58;0.63;;;3.50;99.90;;;1.85;95.39;102225.13;4944691;28;20024;-78
2023/01/27 07:15:07;;;;;;;7.53;1.00;;;3.60;99.90;;;1.87;95.72;102237.28;4919751;28;20038;-78
2023/01/27 07:17:34;;;;;;;6.38;0.73;;;3.60;99.90;;;1.93;95.69;102230.44;4907336;28;20048;-77
2023/01/27 07:20:01;;;;;;;8.43;0.93;;;3.60;99.90;;;1.89;95.97;102253.78;4895811;28;20030;-77
2023/01/27 07:22:27;;;;;;;7.35;0.70;;;3.60;99.90;;;1.95;96.22;102253.84;4904747;28;20050;-81
2023/01/27 07:24:56;;;;;;;6.72;0.80;;;3.70;99.90;;;1.98;96.64;102246.97;4911275;28;20035;-78
2023/01/27 07:27:23;;;;;;;4.32;0.60;;;3.60;99.90;;;1.90;96.36;102251.19;4926707;28;20483;-77
2023/01/27 07:29:49;;;;;;;9.05;0.70;;;3.60;99.90;;;1.90;96.35;102252.91;4948089;28;20503;-77
2023/01/27 07:32:16;;;;;;;7.53;0.88;;;3.60;99.90;;;1.96;96.26;102259.06;4937207;28;20700;-77
2023/01/27 07:34:41;;;;;;;5.15;0.60;;;3.60;99.90;;;1.95;96.00;102266.84;4932221;28;20038;-77
2023/01/27 07:37:07;;;;;;;6.75;0.80;;;3.60;99.90;;;1.92;95.48;102264.19;4914306;28;20034;-77
2023/01/27 07:39:40;;;;;;;2.17;0.70;;;3.60;99.90;;;1.95;95.32;102256.47;4957775;28;21261;-77
2023/01/27 07:42:09;;;;;;;9.48;1.00;;;3.70;99.90;;;2.03;94.81;102273.88;4943957;28;21520;-77
2023/01/27 07:44:35;;;;;;;6.63;0.88;;;3.70;99.90;;;2.02;94.38;102276.47;4937569;28;20088;-77
2023/01/27 07:47:05;;;;;;;4.28;0.60;;;3.70;99.90;;;2.02;94.34;102271.25;4918478;28;20077;-78
2023/01/27 07:49:31;;;;;;;10.15;0.82;;;3.70;99.90;;;2.08;93.98;102286.06;4889478;28;20031;-77
2023/01/27 07:51:57;;;;;;;7.00;0.80;;;3.70;99.90;;;2.06;93.35;102288.66;4962170;28;20035;-76
2023/01/27 07:54:24;;;;;;;5.00;0.77;;;3.80;99.90;;;2.12;92.86;102283.53;4964185;28;20042;-77
2023/01/27 07:56:51;;;;;;;6.45;0.85;;;3.80;99.90;;;2.18;93.37;102294.00;4932133;28;20047;-77
2023/01/27 07:59:23;;;;;;;5.95;0.88;;;3.80;99.90;;;2.18;92.88;102298.31;4928818;28;20034;-77
2023/01/27 08:01:49;;;;;;;12.70;0.93;;;3.80;99.90;;;2.15;93.23;102300.88;4919094;28;20058;-77
2023/01/27 08:04:16;;;;;;;7.78;1.13;;;3.90;99.90;;;2.24;93.69;102299.25;4913288;28;20053;-77
2023/01/27 08:06:41;;;;;;;9.38;1.23;;;3.80;99.90;;;2.22;92.95;102303.56;4926340;28;20424;-77
2023/01/27 08:09:07;;;;;;;9.02;1.00;;;3.90;99.90;;;2.19;92.49;102306.13;4921160;28;20047;-76
2023/01/27 08:11:40;;;;;;;5.93;0.90;;;3.90;99.90;;;2.28;92.39;102310.59;4934460;28;20042;-77
2023/01/27 08:14:06;;;;;;;6.40;0.80;;;3.90;99.90;;;2.29;92.36;102311.44;4937701;28;20046;-77
2023/01/27 08:16:32;;;;;;;12.32;1.10;;;4.00;99.90;;;2.37;92.04;102302.03;4904289;28;20057;-77
2023/01/27 08:18:58;;;;;;;5.38;0.80;;;4.00;99.90;;;2.36;92.02;102295.09;4936323;28;20121;-77
2023/01/27 08:21:31;;;;;;;8.35;1.10;;;4.00;99.90;;;2.30;91.69;102301.09;4939424;28;20494;-77
2023/01/27 08:23:58;;;;;;;13.13;1.33;;;4.00;99.90;;;2.40;92.28;102308.16;4923088;28;20047;-77
2023/01/27 08:26:24;;;;;;;8.77;1.40;;;4.00;99.90;;;2.50;92.22;102303.06;4892866;28;20468;-78
2023/01/27 08:28:50;;;;;;;15.95;1.45;;;4.10;99.90;;;2.52;91.98;102301.34;4946666;28;20036;-77
2023/01/27 08:31:21;;;;;;;7.10;1.05;;;4.10;99.90;;;2.45;91.25;102310.81;4945676;28;20037;-78
2023/01/27 08:33:52;;;;;;;11.50;2.17;;;4.10;99.90;;;2.42;90.27;102295.19;4932810;28;20047;-77
2023/01/27 08:36:20;;;;;;;6.80;0.57;;;4.10;99.90;;;2.43;90.23;102295.19;4931431;28;20122;-77
2023/01/27 08:38:51;;;;;;;2.35;0.47;;;4.10;99.90;;;2.48;90.00;102300.44;4941251;28;20122;-78
2023/01/27 08:41:26;;;;;;;13.20;1.00;;;4.10;99.90;;;2.51;89.64;102295.28;4914018;28;20055;-78
2023/01/27 08:43:54;;;;;;;5.57;0.80;;;4.10;99.90;;;2.51;89.37;102287.47;4893574;28;20059;-78
2023/01/27 08:46:20;;;;;;;5.43;0.82;;;4.10;99.90;;;2.51;88.06;102289.22;4921332;28;20498;-78
2023/01/27 08:48:46;;;;;;;4.78;0.50;;;4.10;99.90;;;2.43;87.10;102300.38;4940051;28;20122;-76
2023/01/27 08:51:14;;;;;;;5.80;0.57;;;4.10;99.90;;;2.40;86.20;102296.88;4937583;28;20039;-77
2023/01/27 08:53:48;;;;;;;6.07;1.00;;;4.10;99.90;;;2.45;86.57;102305.59;4931349;28;20029;-78
2023/01/27 08:56:14;;;;;;;3.95;0.63;;;4.20;99.90;;;2.61;86.98;102299.75;4930961;28;20054;-77
2023/01/27 08:58:41;;;;;;;8.43;0.93;;;4.20;99.90;;;2.56;86.94;102298.78;4899108;28;20046;-77
2023/01/27 09:01:08;;;;;;;3.75;0.70;;;4.20;99.90;;;2.62;85.87;102306.69;4965186;28;20064;-77
2023/01/27 09:03:37;;;;;;;8.13;0.75;;;4.30;99.90;;;2.63;85.30;102308.41;4902506;28;20573;-77
2023/01/27 09:06:06;;;;;;;4.45;0.70;;;4.40;99.90;;;2.86;86.08;102311.28;4903725;28;20067;-77
2023/01/27 09:08:32;;;;;;;6.72;0.80;;;4.40;99.90;;;2.71;84.60;102305.03;4946829;28;20380;-78
2023/01/27 09:10:58;;;;;;;11.10;0.98;;;4.10;99.90;;;2.83;84.27;102307.75;4907343;28;20066;-77
2023/01/27 09:13:32;;;;;;;5.13;0.80;;;4.40;99.90;;;2.82;83.21;102311.22;4959924;28;20038;-78
2023/01/27 09:15:59;;;;;;;5.00;0.80;;;4.40;99.90;;;2.93;83.19;102316.56;4938740;28;20051;-77
2023/01/27 09:18:26;;;;;;;5.65;0.82;;;4.40;99.90;;;2.84;82.50;102306.91;4944456;28;20042;-78
2023/01/27 09:21:02;;;;;;;;;;;;;;;;;;;;;
2023/01/27 09:23:37;;;;;;;2.75;0.32;;;4.50;99.90;;;2.86;80.49;102313.88;4931193;28;20453;-77
2023/01/27 09:26:06;;;;;;;6.18;0.80;;;4.60;99.90;;;3.06;81.20;102318.41;4950216;28;20046;-77
2023/01/27 09:28:35;;;;;;;2.92;0.60;;;4.60;99.90;;;3.15;80.82;102317.63;4943725;28;20597;-78
2023/01/27 09:31:03;;;;;;;4.55;0.50;;;4.50;99.90;;;2.91;79.74;102318.25;4958865;28;20471;-78
2023/01/27 09:33:32;;;;;;;4.70;0.70;;;4.50;99.90;;;2.97;79.92;102327.00;4894603;28;20027;-77
2023/01/27 09:36:08;;;;;;;4.97;0.50;;;4.60;99.90;;;3.14;80.35;102326.31;4925926;28;20043;-77
2023/01/27 09:38:40;;;;;;;;;;;4.70;99.90;;;3.18;79.48;102333.28;4933314;28;20081;-77
2023/01/27 09:41:52;;;;;;;4.13;1.10;;;4.70;99.90;;;3.21;80.13;102339.38;4929921;28;19966;-78
2023/01/27 09:44:49;;;;;;;7.57;0.75;;;4.80;99.90;;;3.42;80.92;102338.72;4935278;28;20031;-78
2023/01/27 09:47:46;;;;;;;5.10;1.10;;;4.90;99.90;;;3.48;81.44;102349.19;4934980;28;20042;-76
2023/01/27 09:50:45;;;;;;;6.25;0.50;;;5.00;99.90;;;3.49;81.20;102356.13;4959736;28;20038;-77
2023/01/27 09:53:22;;;;;;;16.02;1.90;;;4.90;99.90;;;3.37;80.71;102360.34;4911460;28;20507;-77
2023/01/27 09:56:19;;;;;;;6.72;0.52;;;5.00;99.90;;;3.45;81.42;102349.16;4962051;28;20050;-77
2023/01/27 09:59:28;;;;;;;3.28;0.68;;;4.90;99.90;;;3.37;80.88;102358.66;4958367;28;20061;-76
2023/01/27 10:02:32;;;;;;;6.93;0.80;;;4.90;99.90;;;3.11;79.80;102350.59;4962351;28;20461;-76
2023/01/27 10:05:34;;;;;;;8.25;0.77;;;4.80;99.90;;;3.19;80.83;102377.53;4954951;28;20038;-76
2023/01/27 10:08:45;;;;;;;6.85;0.93;;;4.90;99.90;;;3.29;80.31;102366.38;4942355;28;20064;-77
2023/01/27 10:11:32;;;;;;;6.00;0.80;;;4.80;99.90;;;3.14;80.25;102365.34;4962249;28;20034;-76
2023/01/27 10:14:20;;;;;;;5.95;0.60;;;4.80;99.90;;;3.04;79.99;102362.63;4976018;28;20133;-77
2023/01/27 10:17:18;;;;;;;8.90;0.82;;;4.70;99.90;;;3.03;78.86;102365.25;4969058;28;20026;-77
2023/01/27 10:20:29;;;;;;;3.38;0.57;;;4.60;99.90;;;2.91;79.02;102360.75;4968469;28;20126;-78
2023/01/27 10:23:42;;;;;;;2.72;0.52;;;4.70;99.90;;;3.00;78.95;102365.19;4969912;28;20681;-76
2023/01/27 10:26:34;;;;;;;5.15;0.57;;;4.60;99.90;;;2.97;78.24;102367.78;4932166;28;20038;-77
2023/01/27 10:29:30;;;;;;;4.75;0.73;;;4.60;99.90;;;3.01;79.16;102367.81;4973601;28;20105;-78
2023/01/27 10:32:05;;;;;;;7.32;0.77;;;4.60;99.90;;;3.11;79.24;102371.41;4953677;28;20069;-77
2023/01/27 10:34:39;;;;;;;4.00;0.50;;;4.70;99.90;;;3.02;79.19;102382.59;4939239;28;20059;-77
2023/01/27 10:37:34;;;;;;;2.80;0.40;;;4.70;99.90;;;3.10;79.05;102372.25;4943283;28;20491;-76
2023/01/27 10:40:07;;;;;;;1.83;0.40;;;4.70;99.90;;;3.04;77.84;102380.84;4967359;28;20095;-76
2023/01/27 10:42:52;;;;;;;3.03;0.82;;;4.60;99.90;;;3.01;76.22;102373.03;4950352;28;20082;-77
2023/01/27 10:45:41;;;;;;;5.13;1.10;;;4.60;99.90;;;2.99;76.04;102368.66;4968966;28;20034;-77
2023/01/27 10:49:03;;;;;;;2.28;0.47;;;4.70;99.90;;;3.03;76.54;102368.72;4941525;28;20039;-77
2023/01/27 10:51:41;;;;;;;2.05;0.40;;;4.60;99.90;;;3.01;76.81;102370.41;4952677;28;20045;-77
2023/01/27 10:54:37;;;;;;;6.00;0.70;;;4.70;99.90;;;3.14;76.95;102378.38;4920246;28;20063;-77
2023/01/27 10:57:35;;;;;;;2.20;0.38;;;4.60;99.90;;;3.11;77.10;102374.00;4937831;28;20039;-76
2023/01/27 11:00:15;;;;;;;3.00;0.50;;;4.70;99.90;;;3.10;76.35;102379.19;4930818;28;20208;-77
2023/01/27 11:03:42;;;;;;;6.55;0.68;;;4.70;99.90;;;3.18;75.61;102369.75;4938618;28;20095;-76
2023/01/27 11:06:23;;;;;;;1.95;0.30;;;4.70;99.90;;;3.01;74.63;102362.63;4889317;29;20055;-76
2023/01/27 11:09:00;;;;;;;6.75;0.43;;;4.70;99.90;;;3.21;75.00;102375.81;4944973;28;20118;-77
2023/01/27 11:14:31;;;;;;;2.90;0.40;;;4.80;99.90;;;3.01;74.39;102369.56;4934315;28;20115;-76
2023/01/27 11:17:19;;;;;;;5.78;0.60;;;4.70;99.90;;;3.22;74.40;102376.72;4940603;28;20027;-77
2023/01/27 11:20:06;;;;;;;4.32;0.43;;;4.80;99.90;;;3.29;74.38;102375.91;4933062;28;20211;-77
2023/01/27 11:22:57;;;;;;;1.52;0.40;;;4.80;99.90;;;3.28;74.94;102375.06;4964224;28;20057;-77
2023/01/27 11:26:04;;;;;;;9.32;0.73;;;4.90;99.90;;;3.34;74.90;102376.81;4956729;28;20041;-76
2023/01/27 11:28:43;;;;;;;9.68;0.50;;;5.00;99.90;;;3.43;74.54;102369.09;4960056;28;20458;-78
2023/01/27 11:31:34;;;;;;;4.50;0.98;;;5.00;99.90;;;3.36;73.51;102372.50;4915804;28;20468;-77
2023/01/27 11:34:21;;;;;;;3.83;0.50;;;4.80;99.90;;;3.11;72.78;102378.31;4954742;28;20410;-77
2023/01/27 11:36:48;;;;;;;1.25;0.30;;;4.80;99.90;;;3.11;72.43;102393.94;4919580;28;20054;-77
2023/01/27 11:39:14;;;;;;;2.90;0.65;;;4.70;99.90;;;3.00;72.87;102371.28;4934814;28;20050;-77
2023/01/27 11:41:52;;;;;;;5.57;0.47;;;4.70;99.90;;;3.17;73.42;102373.19;4895615;28;20170;-77
2023/01/27 11:44:26;;;;;;;4.43;0.65;;;4.80;99.90;;;3.36;73.12;102369.03;4957718;28;20447;-77
2023/01/27 11:46:54;;;;;;;4.80;0.65;;;4.90;99.90;;;3.39;73.04;102372.56;4939616;28;20049;-77
2023/01/27 11:49:34;;;;;;;3.60;0.50;;;4.90;99.90;;;3.49;72.16;102355.25;4943363;28;20038;-77
2023/01/27 11:52:09;;;;;;;3.03;0.32;;;5.00;99.90;;;3.45;71.64;102343.94;4933421;28;20037;-77
2023/01/27 11:54:44;;;;;;;6.57;1.07;;;4.90;99.90;;;3.33;72.18;102362.06;4910740;28;20046;-78
2023/01/27 11:57:24;;;;;;;1.95;0.50;;;4.80;99.90;;;3.19;71.68;102351.50;4931031;28;20114;-77
2023/01/27 12:00:09;;;;;;;2.08;0.40;;;4.80;99.90;;;3.23;71.43;102357.63;4940154;28;20121;-77
2023/01/27 12:02:46;;;;;;;9.25;0.70;;;4.90;99.90;;;3.32;71.17;102367.25;4934695;28;20058;-76
2023/01/27 12:05:20;;;;;;;6.95;0.90;;;5.00;99.90;;;3.58;72.30;102357.06;4933512;28;20100;-78
2023/01/27 12:07:55;;;;;;;3.63;0.73;;;5.10;99.90;;;3.64;72.32;102360.59;4910947;28;20463;-78
2023/01/27 12:10:43;;;;;;;5.35;0.50;;;5.10;99.90;;;3.50;72.02;102351.81;4899342;28;20579;-78